sensor_id;sensor_type;location;lat;lon;timestamp;temperature;humidity
20057;DHT22;10189;49.546;7.906;2022-10-31T00:01:32;9.80;95.90
20057;DHT22;10189;49.546;7.906;2022-10-31T00:03:59;9.80;95.70
20057;DHT22;10189;49.546;7.906;2022-10-31T00:06:25;9.80;95.80
20057;DHT22;10189;49.546;7.906;2022-10-31T00:08:53;9.80;95.90
20057;DHT22;10189;49.546;7.906;2022-10-31T00:11:22;9.80;95.70
20057;DHT22;10189;49.546;7.906;2022-10-31T00:13:48;9.70;95.80
20057;DHT22;10189;49.546;7.906;2022-10-31T00:16:20;9.80;95.70
20057;DHT22;10189;49.546;7.906;2022-10-31T00:18:52;9.80;95.30
20057;DHT22;10189;49.546;7.906;2022-10-31T00:21:20;9.70;95.30
20057;DHT22;10189;49.546;7.906;2022-10-31T00:23:47;9.70;95.60
20057;DHT22;10189;49.546;7.906;2022-10-31T00:26:14;9.60;95.50
20057;DHT22;10189;49.546;7.906;2022-10-31T00:28:39;9.60;96.10
20057;DHT22;10189;49.546;7.906;2022-10-31T00:31:07;9.60;96.80
20057;DHT22;10189;49.546;7.906;2022-10-31T00:33:36;9.50;96.20
20057;DHT22;10189;49.546;7.906;2022-10-31T00:36:05;9.50;96.20
20057;DHT22;10189;49.546;7.906;2022-10-31T00:38:32;9.50;96.40
20057;DHT22;10189;49.546;7.906;2022-10-31T00:40:58;9.50;97.00
20057;DHT22;10189;49.546;7.906;2022-10-31T00:43:24;9.50;97.10
20057;DHT22;10189;49.546;7.906;2022-10-31T00:45:50;9.50;97.20
20057;DHT22;10189;49.546;7.906;2022-10-31T00:48:16;9.50;97.50
20057;DHT22;10189;49.546;7.906;2022-10-31T00:50:42;9.50;97.50
20057;DHT22;10189;49.546;7.906;2022-10-31T00:53:08;9.50;97.50
20057;DHT22;10189;49.546;7.906;2022-10-31T00:55:34;9.50;97.30
20057;DHT22;10189;49.546;7.906;2022-10-31T00:58:00;9.40;97.40
20057;DHT22;10189;49.546;7.906;2022-10-31T01:00:26;9.40;97.00
20057;DHT22;10189;49.546;7.906;2022-10-31T01:02:52;9.40;96.60
20057;DHT22;10189;49.546;7.906;2022-10-31T01:05:18;9.30;96.70
20057;DHT22;10189;49.546;7.906;2022-10-31T01:07:46;9.20;96.70
20057;DHT22;10189;49.546;7.906;2022-10-31T01:10:12;9.20;97.00
20057;DHT22;10189;49.546;7.906;2022-10-31T01:12:40;9.10;97.40
20057;DHT22;10189;49.546;7.906;2022-10-31T01:15:09;9.10;97.60
20057;DHT22;10189;49.546;7.906;2022-10-31T01:17:37;9.10;97.90
20057;DHT22;10189;49.546;7.906;2022-10-31T01:20:04;9.10;97.90
20057;DHT22;10189;49.546;7.906;2022-10-31T01:22:33;9.00;98.30
20057;DHT22;10189;49.546;7.906;2022-10-31T01:25:00;9.00;98.70
20057;DHT22;10189;49.546;7.906;2022-10-31T01:27:26;9.10;99.30
20057;DHT22;10189;49.546;7.906;2022-10-31T01:29:52;9.10;99.40
20057;DHT22;10189;49.546;7.906;2022-10-31T01:32:18;9.20;99.30
20057;DHT22;10189;49.546;7.906;2022-10-31T01:34:44;9.20;99.30
20057;DHT22;10189;49.546;7.906;2022-10-31T01:37:12;9.20;99.20
20057;DHT22;10189;49.546;7.906;2022-10-31T01:39:38;9.20;99.10
20057;DHT22;10189;49.546;7.906;2022-10-31T01:42:04;9.20;99.10
20057;DHT22;10189;49.546;7.906;2022-10-31T01:47:14;9.10;99.00
20057;DHT22;10189;49.546;7.906;2022-10-31T01:49:49;9.10;99.10
20057;DHT22;10189;49.546;7.906;2022-10-31T01:52:30;9.10;99.40
20057;DHT22;10189;49.546;7.906;2022-10-31T01:57:44;9.20;99.50
20057;DHT22;10189;49.546;7.906;2022-10-31T02:00:12;9.10;99.60
20057;DHT22;10189;49.546;7.906;2022-10-31T02:02:39;9.20;99.60
20057;DHT22;10189;49.546;7.906;2022-10-31T02:05:10;9.20;99.50
20057;DHT22;10189;49.546;7.906;2022-10-31T02:08:12;9.10;99.00
20057;DHT22;10189;49.546;7.906;2022-10-31T02:10:42;9.10;98.70
20057;DHT22;10189;49.546;7.906;2022-10-31T02:13:10;9.00;98.30
20057;DHT22;10189;49.546;7.906;2022-10-31T02:15:45;9.00;98.30
20057;DHT22;10189;49.546;7.906;2022-10-31T02:18:14;9.00;97.80
20057;DHT22;10189;49.546;7.906;2022-10-31T02:20:58;8.90;98.20
20057;DHT22;10189;49.546;7.906;2022-10-31T02:27:19;8.80;99.30
20057;DHT22;10189;49.546;7.906;2022-10-31T02:30:05;8.70;99.60
20057;DHT22;10189;49.546;7.906;2022-10-31T02:33:05;8.70;99.80
20057;DHT22;10189;49.546;7.906;2022-10-31T02:46:49;8.70;99.90
20057;DHT22;10189;49.546;7.906;2022-10-31T02:51:58;8.70;99.90
20057;DHT22;10189;49.546;7.906;2022-10-31T02:54:25;8.70;99.90
20057;DHT22;10189;49.546;7.906;2022-10-31T02:57:03;8.70;99.90
20057;DHT22;10189;49.546;7.906;2022-10-31T02:59:31;8.70;99.90
20057;DHT22;10189;49.546;7.906;2022-10-31T03:02:06;8.70;99.90
20057;DHT22;10189;49.546;7.906;2022-10-31T03:08:00;8.60;99.90
20057;DHT22;10189;49.546;7.906;2022-10-31T03:13:35;8.60;99.90
20057;DHT22;10189;49.546;7.906;2022-10-31T03:18:50;8.50;99.90
20057;DHT22;10189;49.546;7.906;2022-10-31T03:21:32;8.40;99.90
20057;DHT22;10189;49.546;7.906;2022-10-31T03:24:06;8.40;99.90
20057;DHT22;10189;49.546;7.906;2022-10-31T03:26:41;8.40;99.90
20057;DHT22;10189;49.546;7.906;2022-10-31T03:29:12;8.40;99.90
20057;DHT22;10189;49.546;7.906;2022-10-31T03:31:52;8.40;99.90
20057;DHT22;10189;49.546;7.906;2022-10-31T03:34:22;8.40;99.90
20057;DHT22;10189;49.546;7.906;2022-10-31T03:36:51;8.50;99.90
20057;DHT22;10189;49.546;7.906;2022-10-31T03:39:21;8.50;99.90
20057;DHT22;10189;49.546;7.906;2022-10-31T03:41:54;8.60;99.90
20057;DHT22;10189;49.546;7.906;2022-10-31T03:44:27;8.60;99.90
20057;DHT22;10189;49.546;7.906;2022-10-31T03:46:59;8.60;99.90
20057;DHT22;10189;49.546;7.906;2022-10-31T03:49:27;8.60;99.90
20057;DHT22;10189;49.546;7.906;2022-10-31T03:52:22;8.60;99.90
20057;DHT22;10189;49.546;7.906;2022-10-31T03:54:57;8.60;99.90
20057;DHT22;10189;49.546;7.906;2022-10-31T03:57:39;8.60;99.90
20057;DHT22;10189;49.546;7.906;2022-10-31T04:00:13;8.60;99.90
20057;DHT22;10189;49.546;7.906;2022-10-31T04:03:09;8.50;99.90
20057;DHT22;10189;49.546;7.906;2022-10-31T04:05:43;8.50;99.90
20057;DHT22;10189;49.546;7.906;2022-10-31T04:08:16;8.40;99.90
20057;DHT22;10189;49.546;7.906;2022-10-31T04:10:49;8.40;99.90
20057;DHT22;10189;49.546;7.906;2022-10-31T04:13:22;8.40;99.90
20057;DHT22;10189;49.546;7.906;2022-10-31T04:16:04;8.40;99.90
20057;DHT22;10189;49.546;7.906;2022-10-31T04:18:32;8.30;99.90
20057;DHT22;10189;49.546;7.906;2022-10-31T04:21:06;8.30;99.90
20057;DHT22;10189;49.546;7.906;2022-10-31T04:23:34;8.30;99.90
20057;DHT22;10189;49.546;7.906;2022-10-31T04:26:11;8.20;99.90
20057;DHT22;10189;49.546;7.906;2022-10-31T04:28:38;8.20;99.90
20057;DHT22;10189;49.546;7.906;2022-10-31T04:31:05;8.10;99.90
20057;DHT22;10189;49.546;7.906;2022-10-31T04:33:34;8.10;99.90
20057;DHT22;10189;49.546;7.906;2022-10-31T04:36:01;8.10;99.90
20057;DHT22;10189;49.546;7.906;2022-10-31T04:38:27;8.10;99.90
20057;DHT22;10189;49.546;7.906;2022-10-31T04:40:53;8.10;99.90
20057;DHT22;10189;49.546;7.906;2022-10-31T04:43:48;8.10;99.90
20057;DHT22;10189;49.546;7.906;2022-10-31T04:46:14;8.10;99.90
20057;DHT22;10189;49.546;7.906;2022-10-31T04:48:41;8.10;99.90
20057;DHT22;10189;49.546;7.906;2022-10-31T04:51:07;8.10;99.90
20057;DHT22;10189;49.546;7.906;2022-10-31T04:53:33;8.20;99.90
20057;DHT22;10189;49.546;7.906;2022-10-31T04:56:17;8.20;99.90
20057;DHT22;10189;49.546;7.906;2022-10-31T04:58:46;8.20;99.90
20057;DHT22;10189;49.546;7.906;2022-10-31T05:01:12;8.30;99.90
20057;DHT22;10189;49.546;7.906;2022-10-31T05:03:39;8.30;99.90
20057;DHT22;10189;49.546;7.906;2022-10-31T05:06:06;8.30;99.90
20057;DHT22;10189;49.546;7.906;2022-10-31T05:08:32;8.30;99.90
20057;DHT22;10189;49.546;7.906;2022-10-31T05:11:03;8.30;99.90
20057;DHT22;10189;49.546;7.906;2022-10-31T05:13:29;8.30;99.90
20057;DHT22;10189;49.546;7.906;2022-10-31T05:16:13;8.30;99.90
20057;DHT22;10189;49.546;7.906;2022-10-31T05:18:39;8.30;99.90
20057;DHT22;10189;49.546;7.906;2022-10-31T05:21:23;8.30;99.90
20057;DHT22;10189;49.546;7.906;2022-10-31T05:23:57;8.30;99.90
20057;DHT22;10189;49.546;7.906;2022-10-31T05:26:24;8.40;99.90
20057;DHT22;10189;49.546;7.906;2022-10-31T05:28:52;8.30;99.90
20057;DHT22;10189;49.546;7.906;2022-10-31T05:31:19;8.40;99.90
20057;DHT22;10189;49.546;7.906;2022-10-31T05:33:45;8.40;99.90
20057;DHT22;10189;49.546;7.906;2022-10-31T05:36:43;8.40;99.90
20057;DHT22;10189;49.546;7.906;2022-10-31T05:39:16;8.50;99.90
20057;DHT22;10189;49.546;7.906;2022-10-31T05:41:46;8.50;99.90
20057;DHT22;10189;49.546;7.906;2022-10-31T05:44:17;8.50;99.90
20057;DHT22;10189;49.546;7.906;2022-10-31T05:46:53;8.50;99.90
20057;DHT22;10189;49.546;7.906;2022-10-31T05:49:22;8.50;99.90
20057;DHT22;10189;49.546;7.906;2022-10-31T05:52:07;8.50;99.90
20057;DHT22;10189;49.546;7.906;2022-10-31T05:54:39;8.50;99.90
20057;DHT22;10189;49.546;7.906;2022-10-31T05:57:05;8.50;99.90
20057;DHT22;10189;49.546;7.906;2022-10-31T05:59:31;8.50;99.90
20057;DHT22;10189;49.546;7.906;2022-10-31T06:01:57;8.50;99.90
20057;DHT22;10189;49.546;7.906;2022-10-31T06:04:52;8.50;99.90
20057;DHT22;10189;49.546;7.906;2022-10-31T06:07:20;8.50;99.90
20057;DHT22;10189;49.546;7.906;2022-10-31T06:09:46;8.50;99.90
20057;DHT22;10189;49.546;7.906;2022-10-31T06:12:14;8.50;99.90
20057;DHT22;10189;49.546;7.906;2022-10-31T06:15:13;8.50;99.90
20057;DHT22;10189;49.546;7.906;2022-10-31T06:17:41;8.50;99.90
20057;DHT22;10189;49.546;7.906;2022-10-31T06:20:20;8.50;99.90
20057;DHT22;10189;49.546;7.906;2022-10-31T06:22:55;8.50;99.90
20057;DHT22;10189;49.546;7.906;2022-10-31T06:25:22;8.50;99.90
20057;DHT22;10189;49.546;7.906;2022-10-31T06:27:49;8.50;99.90
20057;DHT22;10189;49.546;7.906;2022-10-31T06:30:15;8.50;99.90
20057;DHT22;10189;49.546;7.906;2022-10-31T06:32:42;8.50;99.90
20057;DHT22;10189;49.546;7.906;2022-10-31T06:35:09;8.50;99.90
20057;DHT22;10189;49.546;7.906;2022-10-31T06:37:36;8.50;99.90
20057;DHT22;10189;49.546;7.906;2022-10-31T06:40:20;8.60;99.90
20057;DHT22;10189;49.546;7.906;2022-10-31T06:43:08;8.70;99.90
20057;DHT22;10189;49.546;7.906;2022-10-31T06:45:37;8.80;99.90
20057;DHT22;10189;49.546;7.906;2022-10-31T06:48:11;8.90;99.90
20057;DHT22;10189;49.546;7.906;2022-10-31T06:50:47;8.90;99.90
20057;DHT22;10189;49.546;7.906;2022-10-31T06:53:14;8.90;99.90
20057;DHT22;10189;49.546;7.906;2022-10-31T06:55:41;9.00;99.90
20057;DHT22;10189;49.546;7.906;2022-10-31T06:58:09;9.10;99.90
20057;DHT22;10189;49.546;7.906;2022-10-31T07:00:38;9.20;99.90
20057;DHT22;10189;49.546;7.906;2022-10-31T07:03:11;9.30;99.90
20057;DHT22;10189;49.546;7.906;2022-10-31T07:05:38;9.40;99.90
20057;DHT22;10189;49.546;7.906;2022-10-31T07:08:07;9.50;99.90
20057;DHT22;10189;49.546;7.906;2022-10-31T07:10:36;9.60;99.90
20057;DHT22;10189;49.546;7.906;2022-10-31T07:13:05;9.70;99.80
20057;DHT22;10189;49.546;7.906;2022-10-31T07:15:38;9.80;99.80
20057;DHT22;10189;49.546;7.906;2022-10-31T07:18:07;9.90;99.20
20057;DHT22;10189;49.546;7.906;2022-10-31T07:20:35;9.90;98.00
20057;DHT22;10189;49.546;7.906;2022-10-31T07:23:02;10.00;96.30
20057;DHT22;10189;49.546;7.906;2022-10-31T07:25:30;10.10;95.50
20057;DHT22;10189;49.546;7.906;2022-10-31T07:28:28;10.10;94.70
20057;DHT22;10189;49.546;7.906;2022-10-31T07:30:56;10.10;94.90
20057;DHT22;10189;49.546;7.906;2022-10-31T07:33:23;10.20;94.70
20057;DHT22;10189;49.546;7.906;2022-10-31T07:36:14;10.30;95.00
20057;DHT22;10189;49.546;7.906;2022-10-31T07:38:43;10.40;94.40
20057;DHT22;10189;49.546;7.906;2022-10-31T07:41:09;10.60;94.30
20057;DHT22;10189;49.546;7.906;2022-10-31T07:43:40;10.70;93.20
20057;DHT22;10189;49.546;7.906;2022-10-31T07:46:26;10.80;92.70
20057;DHT22;10189;49.546;7.906;2022-10-31T07:49:10;10.90;92.20
20057;DHT22;10189;49.546;7.906;2022-10-31T07:51:55;11.10;91.50
20057;DHT22;10189;49.546;7.906;2022-10-31T07:54:39;11.20;90.90
20057;DHT22;10189;49.546;7.906;2022-10-31T07:57:08;11.20;90.10
20057;DHT22;10189;49.546;7.906;2022-10-31T07:59:34;11.40;90.60
20057;DHT22;10189;49.546;7.906;2022-10-31T08:02:00;11.60;89.90
20057;DHT22;10189;49.546;7.906;2022-10-31T08:04:44;11.70;89.20
20057;DHT22;10189;49.546;7.906;2022-10-31T08:07:28;11.90;88.90
20057;DHT22;10189;49.546;7.906;2022-10-31T08:10:00;12.00;88.20
20057;DHT22;10189;49.546;7.906;2022-10-31T08:12:30;12.10;88.00
20057;DHT22;10189;49.546;7.906;2022-10-31T08:14:56;12.20;87.70
20057;DHT22;10189;49.546;7.906;2022-10-31T08:17:22;12.40;87.60
20057;DHT22;10189;49.546;7.906;2022-10-31T08:19:59;12.50;88.10
20057;DHT22;10189;49.546;7.906;2022-10-31T08:22:32;12.70;86.90
20057;DHT22;10189;49.546;7.906;2022-10-31T08:24:59;12.90;85.90
20057;DHT22;10189;49.546;7.906;2022-10-31T08:27:26;13.10;84.30
20057;DHT22;10189;49.546;7.906;2022-10-31T08:29:54;13.20;83.80
20057;DHT22;10189;49.546;7.906;2022-10-31T08:32:22;13.40;83.60
20057;DHT22;10189;49.546;7.906;2022-10-31T08:34:57;13.50;83.30
20057;DHT22;10189;49.546;7.906;2022-10-31T08:37:43;13.50;83.50
20057;DHT22;10189;49.546;7.906;2022-10-31T08:40:10;13.70;83.40
20057;DHT22;10189;49.546;7.906;2022-10-31T08:42:36;13.70;83.00
20057;DHT22;10189;49.546;7.906;2022-10-31T08:45:03;13.90;82.50
20057;DHT22;10189;49.546;7.906;2022-10-31T08:47:31;14.00;82.50
20057;DHT22;10189;49.546;7.906;2022-10-31T08:49:57;14.20;82.30
20057;DHT22;10189;49.546;7.906;2022-10-31T08:52:24;14.30;81.80
20057;DHT22;10189;49.546;7.906;2022-10-31T08:54:51;14.40;81.20
20057;DHT22;10189;49.546;7.906;2022-10-31T08:57:36;14.40;80.90
20057;DHT22;10189;49.546;7.906;2022-10-31T09:00:02;14.50;81.00
20057;DHT22;10189;49.546;7.906;2022-10-31T09:02:45;14.50;81.20
20057;DHT22;10189;49.546;7.906;2022-10-31T09:05:12;14.60;81.30
20057;DHT22;10189;49.546;7.906;2022-10-31T09:07:38;14.60;81.40
20057;DHT22;10189;49.546;7.906;2022-10-31T09:10:05;14.60;81.00
20057;DHT22;10189;49.546;7.906;2022-10-31T09:12:34;14.50;81.00
20057;DHT22;10189;49.546;7.906;2022-10-31T09:15:19;14.50;81.30
20057;DHT22;10189;49.546;7.906;2022-10-31T09:17:56;14.60;81.20
20057;DHT22;10189;49.546;7.906;2022-10-31T09:20:30;14.80;81.00
20057;DHT22;10189;49.546;7.906;2022-10-31T09:23:18;14.90;79.90
20057;DHT22;10189;49.546;7.906;2022-10-31T09:25:47;15.10;78.00
20057;DHT22;10189;49.546;7.906;2022-10-31T09:28:31;15.20;76.30
20057;DHT22;10189;49.546;7.906;2022-10-31T09:31:03;15.20;75.80
20057;DHT22;10189;49.546;7.906;2022-10-31T09:33:53;15.20;74.70
20057;DHT22;10189;49.546;7.906;2022-10-31T09:36:39;15.20;75.20
20057;DHT22;10189;49.546;7.906;2022-10-31T09:39:18;15.30;74.50
20057;DHT22;10189;49.546;7.906;2022-10-31T09:51:19;16.10;71.70
20057;DHT22;10189;49.546;7.906;2022-10-31T09:54:29;16.20;71.80
20057;DHT22;10189;49.546;7.906;2022-10-31T09:57:02;16.30;70.40
20057;DHT22;10189;49.546;7.906;2022-10-31T09:59:35;16.20;69.80
20057;DHT22;10189;49.546;7.906;2022-10-31T10:05:28;15.70;70.60
20057;DHT22;10189;49.546;7.906;2022-10-31T10:11:51;15.60;72.60
20057;DHT22;10189;49.546;7.906;2022-10-31T10:14:57;15.60;71.80
20057;DHT22;10189;49.546;7.906;2022-10-31T10:24:23;15.40;73.00
20057;DHT22;10189;49.546;7.906;2022-10-31T10:27:29;15.30;72.50
20057;DHT22;10189;49.546;7.906;2022-10-31T10:30:20;15.30;73.60
20057;DHT22;10189;49.546;7.906;2022-10-31T10:32:55;15.40;73.20
20057;DHT22;10189;49.546;7.906;2022-10-31T10:35:38;15.50;73.40
20057;DHT22;10189;49.546;7.906;2022-10-31T10:38:48;15.70;73.20
20057;DHT22;10189;49.546;7.906;2022-10-31T10:41:20;15.80;72.30
20057;DHT22;10189;49.546;7.906;2022-10-31T10:43:51;15.70;72.90
20057;DHT22;10189;49.546;7.906;2022-10-31T10:46:41;15.70;72.10
20057;DHT22;10189;49.546;7.906;2022-10-31T10:49:41;15.80;73.00
20057;DHT22;10189;49.546;7.906;2022-10-31T10:52:36;16.00;72.90
20057;DHT22;10189;49.546;7.906;2022-10-31T10:55:34;16.20;71.40
20057;DHT22;10189;49.546;7.906;2022-10-31T10:58:07;16.50;70.20
20057;DHT22;10189;49.546;7.906;2022-10-31T11:00:42;16.60;70.30
20057;DHT22;10189;49.546;7.906;2022-10-31T11:03:11;16.70;70.20
20057;DHT22;10189;49.546;7.906;2022-10-31T11:08:28;16.80;70.30
20057;DHT22;10189;49.546;7.906;2022-10-31T11:11:29;17.00;69.70
20057;DHT22;10189;49.546;7.906;2022-10-31T11:14:12;17.10;68.90
20057;DHT22;10189;49.546;7.906;2022-10-31T11:16:46;17.30;69.20
20057;DHT22;10189;49.546;7.906;2022-10-31T11:19:24;17.30;68.90
20057;DHT22;10189;49.546;7.906;2022-10-31T11:21:52;17.10;69.90
20057;DHT22;10189;49.546;7.906;2022-10-31T11:24:25;16.80;70.60
20057;DHT22;10189;49.546;7.906;2022-10-31T11:27:09;16.70;71.40
20057;DHT22;10189;49.546;7.906;2022-10-31T11:29:42;16.60;72.40
20057;DHT22;10189;49.546;7.906;2022-10-31T11:32:22;16.60;72.40
20057;DHT22;10189;49.546;7.906;2022-10-31T11:34:59;16.70;73.90
20057;DHT22;10189;49.546;7.906;2022-10-31T11:37:32;16.90;73.30
20057;DHT22;10189;49.546;7.906;2022-10-31T11:40:04;16.90;72.70
20057;DHT22;10189;49.546;7.906;2022-10-31T11:42:39;17.10;72.20
20057;DHT22;10189;49.546;7.906;2022-10-31T11:45:29;17.10;72.20
20057;DHT22;10189;49.546;7.906;2022-10-31T11:47:58;17.00;72.50
20057;DHT22;10189;49.546;7.906;2022-10-31T11:50:38;16.70;73.60
20057;DHT22;10189;49.546;7.906;2022-10-31T11:53:17;16.70;74.00
20057;DHT22;10189;49.546;7.906;2022-10-31T11:55:46;16.70;74.80
20057;DHT22;10189;49.546;7.906;2022-10-31T11:58:25;16.70;74.30
20057;DHT22;10189;49.546;7.906;2022-10-31T12:00:54;16.80;74.40
20057;DHT22;10189;49.546;7.906;2022-10-31T12:08:43;16.80;74.00
20057;DHT22;10189;49.546;7.906;2022-10-31T12:17:36;16.80;74.70
20057;DHT22;10189;49.546;7.906;2022-10-31T12:29:48;16.50;77.00
20057;DHT22;10189;49.546;7.906;2022-10-31T12:32:53;16.30;78.00
20057;DHT22;10189;49.546;7.906;2022-10-31T12:53:21;17.00;75.20
20057;DHT22;10189;49.546;7.906;2022-10-31T12:56:25;16.90;75.20
20057;DHT22;10189;49.546;7.906;2022-10-31T13:02:17;17.00;76.30
20057;DHT22;10189;49.546;7.906;2022-10-31T13:13:42;16.90;76.50
20057;DHT22;10189;49.546;7.906;2022-10-31T13:16:24;16.90;76.10
20057;DHT22;10189;49.546;7.906;2022-10-31T13:19:20;16.90;76.00
20057;DHT22;10189;49.546;7.906;2022-10-31T13:22:22;17.00;77.10
20057;DHT22;10189;49.546;7.906;2022-10-31T13:28:05;17.50;74.70
20057;DHT22;10189;49.546;7.906;2022-10-31T13:30:39;17.70;72.10
20057;DHT22;10189;49.546;7.906;2022-10-31T13:33:43;17.90;72.30
20057;DHT22;10189;49.546;7.906;2022-10-31T13:36:22;18.10;71.50
20057;DHT22;10189;49.546;7.906;2022-10-31T13:44:47;19.10;68.10
20057;DHT22;10189;49.546;7.906;2022-10-31T13:47:26;19.30;66.80
20057;DHT22;10189;49.546;7.906;2022-10-31T13:50:06;19.40;65.50
20057;DHT22;10189;49.546;7.906;2022-10-31T13:52:46;19.30;66.00
20057;DHT22;10189;49.546;7.906;2022-10-31T13:55:35;19.30;66.70
20057;DHT22;10189;49.546;7.906;2022-10-31T13:58:29;19.10;65.60
20057;DHT22;10189;49.546;7.906;2022-10-31T14:01:16;18.80;66.60
20057;DHT22;10189;49.546;7.906;2022-10-31T14:04:15;18.60;67.30
20057;DHT22;10189;49.546;7.906;2022-10-31T14:07:05;18.30;68.40
20057;DHT22;10189;49.546;7.906;2022-10-31T14:09:37;18.10;69.80
20057;DHT22;10189;49.546;7.906;2022-10-31T14:12:37;17.80;70.50
20057;DHT22;10189;49.546;7.906;2022-10-31T14:15:20;17.60;71.60
20057;DHT22;10189;49.546;7.906;2022-10-31T14:17:59;17.40;72.70
20057;DHT22;10189;49.546;7.906;2022-10-31T14:20:39;17.30;73.60
20057;DHT22;10189;49.546;7.906;2022-10-31T14:23:37;17.00;74.70
20057;DHT22;10189;49.546;7.906;2022-10-31T14:28:56;16.70;76.60
20057;DHT22;10189;49.546;7.906;2022-10-31T14:45:17;16.20;78.60
20057;DHT22;10189;49.546;7.906;2022-10-31T14:51:22;16.10;79.40
20057;DHT22;10189;49.546;7.906;2022-10-31T14:53:54;16.00;79.40
20057;DHT22;10189;49.546;7.906;2022-10-31T14:56:29;16.00;79.20
20057;DHT22;10189;49.546;7.906;2022-10-31T14:59:04;16.00;79.50
20057;DHT22;10189;49.546;7.906;2022-10-31T15:01:36;15.90;80.00
20057;DHT22;10189;49.546;7.906;2022-10-31T15:04:16;15.80;80.60
20057;DHT22;10189;49.546;7.906;2022-10-31T15:07:47;15.80;80.20
20057;DHT22;10189;49.546;7.906;2022-10-31T15:09:44;15.80;80.20
20057;DHT22;10189;49.546;7.906;2022-10-31T15:12:31;15.80;80.00
20057;DHT22;10189;49.546;7.906;2022-10-31T15:15:16;15.90;79.20
20057;DHT22;10189;49.546;7.906;2022-10-31T15:17:49;15.90;80.00
20057;DHT22;10189;49.546;7.906;2022-10-31T15:20:24;15.90;80.60
20057;DHT22;10189;49.546;7.906;2022-10-31T15:22:55;15.80;80.60
20057;DHT22;10189;49.546;7.906;2022-10-31T15:25:25;15.80;80.40
20057;DHT22;10189;49.546;7.906;2022-10-31T15:27:53;15.80;80.20
20057;DHT22;10189;49.546;7.906;2022-10-31T15:30:25;15.70;80.30
20057;DHT22;10189;49.546;7.906;2022-10-31T15:32:53;15.60;80.60
20057;DHT22;10189;49.546;7.906;2022-10-31T15:35:28;15.60;81.10
20057;DHT22;10189;49.546;7.906;2022-10-31T15:37:57;15.50;80.50
20057;DHT22;10189;49.546;7.906;2022-10-31T15:40:25;15.50;81.20
20057;DHT22;10189;49.546;7.906;2022-10-31T15:42:57;15.40;81.20
20057;DHT22;10189;49.546;7.906;2022-10-31T15:45:29;15.40;80.80
20057;DHT22;10189;49.546;7.906;2022-10-31T15:48:01;15.40;80.80
20057;DHT22;10189;49.546;7.906;2022-10-31T15:50:44;15.20;81.20
20057;DHT22;10189;49.546;7.906;2022-10-31T15:53:32;15.10;82.20
20057;DHT22;10189;49.546;7.906;2022-10-31T15:56:12;14.90;83.00
20057;DHT22;10189;49.546;7.906;2022-10-31T15:58:48;14.70;83.40
20057;DHT22;10189;49.546;7.906;2022-10-31T16:01:27;14.50;84.30
20057;DHT22;10189;49.546;7.906;2022-10-31T16:06:37;14.40;84.80
20057;DHT22;10189;49.546;7.906;2022-10-31T16:09:18;14.30;85.10
20057;DHT22;10189;49.546;7.906;2022-10-31T16:11:47;14.20;85.70
20057;DHT22;10189;49.546;7.906;2022-10-31T16:16:49;13.80;87.00
20057;DHT22;10189;49.546;7.906;2022-10-31T16:19:26;13.70;87.70
20057;DHT22;10189;49.546;7.906;2022-10-31T16:22:07;13.70;88.90
20057;DHT22;10189;49.546;7.906;2022-10-31T16:27:28;13.40;89.40
20057;DHT22;10189;49.546;7.906;2022-10-31T16:29:58;13.20;90.00
20057;DHT22;10189;49.546;7.906;2022-10-31T16:32:53;13.00;90.50
20057;DHT22;10189;49.546;7.906;2022-10-31T16:35:42;12.90;91.40
20057;DHT22;10189;49.546;7.906;2022-10-31T16:38:08;12.70;92.10
20057;DHT22;10189;49.546;7.906;2022-10-31T16:40:37;12.60;92.50
20057;DHT22;10189;49.546;7.906;2022-10-31T16:43:04;12.50;92.40
20057;DHT22;10189;49.546;7.906;2022-10-31T16:45:31;12.40;92.60
20057;DHT22;10189;49.546;7.906;2022-10-31T16:48:11;12.20;92.90
20057;DHT22;10189;49.546;7.906;2022-10-31T16:50:41;12.20;94.70
20057;DHT22;10189;49.546;7.906;2022-10-31T16:53:09;12.10;95.10
20057;DHT22;10189;49.546;7.906;2022-10-31T16:55:45;12.00;96.50
20057;DHT22;10189;49.546;7.906;2022-10-31T16:58:16;11.90;97.30
20057;DHT22;10189;49.546;7.906;2022-10-31T17:00:46;11.80;97.20
20057;DHT22;10189;49.546;7.906;2022-10-31T17:03:12;11.70;97.20
20057;DHT22;10189;49.546;7.906;2022-10-31T17:05:38;11.60;97.90
20057;DHT22;10189;49.546;7.906;2022-10-31T17:08:04;11.50;98.50
20057;DHT22;10189;49.546;7.906;2022-10-31T17:10:30;11.40;99.30
20057;DHT22;10189;49.546;7.906;2022-10-31T17:12:57;11.40;99.70
20057;DHT22;10189;49.546;7.906;2022-10-31T17:15:28;11.40;99.90
20057;DHT22;10189;49.546;7.906;2022-10-31T17:18:00;11.30;99.90
20057;DHT22;10189;49.546;7.906;2022-10-31T17:20:28;11.30;99.90
20057;DHT22;10189;49.546;7.906;2022-10-31T17:22:57;11.30;99.90
20057;DHT22;10189;49.546;7.906;2022-10-31T17:25:26;11.30;99.90
20057;DHT22;10189;49.546;7.906;2022-10-31T17:27:54;11.30;99.90
20057;DHT22;10189;49.546;7.906;2022-10-31T17:30:21;11.30;99.90
20057;DHT22;10189;49.546;7.906;2022-10-31T17:32:49;11.30;99.90
20057;DHT22;10189;49.546;7.906;2022-10-31T17:35:17;11.30;99.90
20057;DHT22;10189;49.546;7.906;2022-10-31T17:37:44;11.20;99.90
20057;DHT22;10189;49.546;7.906;2022-10-31T17:40:12;11.20;99.90
20057;DHT22;10189;49.546;7.906;2022-10-31T17:42:54;11.10;99.90
20057;DHT22;10189;49.546;7.906;2022-10-31T17:45:23;11.10;99.90
20057;DHT22;10189;49.546;7.906;2022-10-31T17:47:51;11.10;99.90
20057;DHT22;10189;49.546;7.906;2022-10-31T17:50:20;11.00;99.90
20057;DHT22;10189;49.546;7.906;2022-10-31T17:52:47;11.00;99.90
20057;DHT22;10189;49.546;7.906;2022-10-31T17:55:14;11.00;99.90
20057;DHT22;10189;49.546;7.906;2022-10-31T17:57:41;10.90;99.90
20057;DHT22;10189;49.546;7.906;2022-10-31T18:00:18;10.90;99.90
20057;DHT22;10189;49.546;7.906;2022-10-31T18:02:50;10.80;99.90
20057;DHT22;10189;49.546;7.906;2022-10-31T18:05:16;10.80;99.90
20057;DHT22;10189;49.546;7.906;2022-10-31T18:07:42;10.80;99.90
20057;DHT22;10189;49.546;7.906;2022-10-31T18:10:09;10.80;99.90
20057;DHT22;10189;49.546;7.906;2022-10-31T18:12:36;10.80;99.90
20057;DHT22;10189;49.546;7.906;2022-10-31T18:15:02;10.70;99.90
20057;DHT22;10189;49.546;7.906;2022-10-31T18:17:28;10.70;99.90
20057;DHT22;10189;49.546;7.906;2022-10-31T18:19:54;10.70;99.90
20057;DHT22;10189;49.546;7.906;2022-10-31T18:22:20;10.80;99.90
20057;DHT22;10189;49.546;7.906;2022-10-31T18:24:46;10.80;99.90
20057;DHT22;10189;49.546;7.906;2022-10-31T18:27:12;10.80;99.90
20057;DHT22;10189;49.546;7.906;2022-10-31T18:29:38;10.70;99.90
20057;DHT22;10189;49.546;7.906;2022-10-31T18:32:04;10.70;99.90
20057;DHT22;10189;49.546;7.906;2022-10-31T18:34:32;10.60;99.90
20057;DHT22;10189;49.546;7.906;2022-10-31T18:36:58;10.60;99.90
20057;DHT22;10189;49.546;7.906;2022-10-31T18:39:24;10.70;99.90
20057;DHT22;10189;49.546;7.906;2022-10-31T18:41:49;10.60;99.90
20057;DHT22;10189;49.546;7.906;2022-10-31T18:44:15;10.50;99.90
20057;DHT22;10189;49.546;7.906;2022-10-31T18:46:41;10.40;99.90